createdAt,value
2017-07-10T00:02:10.508Z,11.23
2017-07-10T00:04:37.913Z,12.07
2017-07-10T00:07:05.319Z,11.60
2017-07-10T00:09:32.722Z,11.00
2017-07-10T00:12:00.122Z,11.77
2017-07-10T00:14:27.528Z,11.30
2017-07-10T00:16:54.923Z,9.67
2017-07-10T00:19:22.322Z,10.90
2017-07-10T00:21:49.728Z,11.30
2017-07-10T00:24:17.132Z,9.80
2017-07-10T00:26:44.537Z,10.13
2017-07-10T00:29:11.936Z,11.50
2017-07-10T00:31:39.339Z,10.93
2017-07-10T00:34:06.772Z,9.93
2017-07-10T00:36:34.189Z,10.70
2017-07-10T00:39:01.584Z,9.40
2017-07-10T00:41:28.987Z,10.13
2017-07-10T00:43:56.387Z,9.40
2017-07-10T00:46:23.787Z,10.57
2017-07-10T00:48:51.187Z,9.10
2017-07-10T00:51:18.591Z,9.80
2017-07-10T00:53:45.982Z,9.83
2017-07-10T00:56:13.387Z,10.93
2017-07-10T00:58:40.783Z,9.07
2017-07-10T01:01:08.176Z,9.70
2017-07-10T01:03:35.575Z,9.67
2017-07-10T01:06:02.976Z,9.00
2017-07-10T01:08:30.376Z,9.57
2017-07-10T01:10:57.768Z,9.37
2017-07-10T01:13:25.167Z,9.43
2017-07-10T01:15:52.566Z,9.27
2017-07-10T01:18:19.980Z,9.60
2017-07-10T01:20:47.375Z,9.50
2017-07-10T01:23:14.783Z,9.73
2017-07-10T01:25:42.171Z,8.30
2017-07-10T01:28:09.574Z,9.87
2017-07-10T01:30:37.277Z,10.20
2017-07-10T01:33:04.683Z,10.37
2017-07-10T01:35:32.078Z,9.77
2017-07-10T01:37:59.484Z,9.40
2017-07-10T01:40:26.883Z,10.07
2017-07-10T01:42:54.291Z,10.47
2017-07-10T01:45:21.688Z,9.13
2017-07-10T01:47:49.096Z,10.17
2017-07-10T01:50:16.492Z,9.87
2017-07-10T01:52:43.893Z,9.97
2017-07-10T01:55:11.295Z,10.87
2017-07-10T01:57:38.709Z,10.17
2017-07-10T02:00:06.098Z,9.57
2017-07-10T02:02:33.503Z,10.03
2017-07-10T02:05:00.896Z,9.90
2017-07-10T02:07:28.295Z,8.53
2017-07-10T02:09:55.689Z,8.23
2017-07-10T02:12:23.078Z,9.10
2017-07-10T02:14:50.473Z,8.40
2017-07-10T02:17:17.871Z,8.33
2017-07-10T02:19:45.272Z,9.60
2017-07-10T02:22:12.667Z,7.77
2017-07-10T02:24:40.063Z,8.50
2017-07-10T02:27:07.460Z,7.80
2017-07-10T02:29:34.855Z,7.70
2017-07-10T02:32:02.248Z,8.30
2017-07-10T02:34:29.645Z,7.40
2017-07-10T02:36:57.039Z,7.07
2017-07-10T02:39:24.440Z,6.80
2017-07-10T02:41:51.833Z,7.63
2017-07-10T02:44:19.218Z,7.03
2017-07-10T02:46:46.609Z,6.80
2017-07-10T02:49:14.001Z,6.43
2017-07-10T02:51:41.384Z,6.60
2017-07-10T02:54:08.784Z,6.17
2017-07-10T02:56:36.168Z,6.63
2017-07-10T02:59:03.578Z,6.67
2017-07-10T03:01:30.971Z,5.93
2017-07-10T03:03:58.368Z,5.93
2017-07-10T03:06:25.771Z,5.43
2017-07-10T03:08:53.172Z,6.97
2017-07-10T03:11:20.575Z,5.57
2017-07-10T03:13:47.976Z,6.87
2017-07-10T03:16:15.371Z,6.07
2017-07-10T03:18:42.771Z,5.90
2017-07-10T03:21:10.168Z,6.13
2017-07-10T03:23:37.572Z,6.57
2017-07-10T03:26:04.955Z,6.33
2017-07-10T03:28:32.359Z,5.10
2017-07-10T03:30:59.753Z,6.20
2017-07-10T03:33:27.156Z,4.93
2017-07-10T03:35:54.552Z,5.83
2017-07-10T03:38:21.936Z,5.77
2017-07-10T03:40:49.340Z,5.07
2017-07-10T03:43:16.724Z,5.53
2017-07-10T03:45:44.128Z,4.97
2017-07-10T03:48:19.300Z,4.87
2017-07-10T03:50:46.703Z,4.97
2017-07-10T03:53:14.367Z,5.00
2017-07-10T03:55:41.771Z,5.50
2017-07-10T03:58:09.157Z,5.70
2017-07-10T04:00:36.552Z,4.63
2017-07-10T04:03:03.947Z,5.07
2017-07-10T04:05:31.347Z,5.33
2017-07-10T04:07:58.747Z,4.50
2017-07-10T04:10:26.143Z,4.83
2017-07-10T04:12:53.536Z,4.93
2017-07-10T04:15:20.932Z,4.53
2017-07-10T04:17:48.323Z,4.90
2017-07-10T04:20:15.724Z,5.93
2017-07-10T04:22:43.115Z,4.90
2017-07-10T04:25:10.518Z,5.53
2017-07-10T04:27:37.910Z,4.63
2017-07-10T04:30:05.594Z,4.00
2017-07-10T04:32:32.999Z,4.60
2017-07-10T04:35:00.404Z,4.60
2017-07-10T04:37:27.797Z,5.57
2017-07-10T04:39:55.196Z,4.07
2017-07-10T04:42:22.587Z,4.80
2017-07-10T04:44:50.174Z,4.57
2017-07-10T04:47:17.576Z,4.27
2017-07-10T04:49:44.984Z,4.60
2017-07-10T04:52:12.386Z,3.80
2017-07-10T04:54:39.798Z,5.13
2017-07-10T04:57:07.195Z,3.60
2017-07-10T04:59:34.603Z,4.93
2017-07-10T05:02:01.996Z,4.70
2017-07-10T05:04:29.384Z,3.67
2017-07-10T05:06:56.779Z,4.73
2017-07-10T05:09:24.181Z,5.30
2017-07-10T05:11:51.704Z,4.77
2017-07-10T05:14:19.099Z,4.00
2017-07-10T05:16:46.503Z,4.27
2017-07-10T05:19:13.900Z,4.57
2017-07-10T05:21:41.308Z,4.40
2017-07-10T05:24:08.699Z,3.67
2017-07-10T05:26:36.390Z,4.27
2017-07-10T05:29:03.776Z,4.03
2017-07-10T05:31:31.190Z,4.10
2017-07-10T05:33:58.592Z,4.23
2017-07-10T05:36:25.999Z,4.63
2017-07-10T05:38:53.393Z,5.17
2017-07-10T05:41:20.792Z,4.10
2017-07-10T05:43:48.185Z,5.00
2017-07-10T05:46:15.603Z,4.50
2017-07-10T05:48:42.980Z,4.17
2017-07-10T05:51:10.405Z,4.20
2017-07-10T05:53:37.787Z,4.30
2017-07-10T05:56:05.192Z,4.10
2017-07-10T05:58:32.629Z,3.90
2017-07-10T06:01:00.008Z,4.43
2017-07-10T06:03:27.416Z,3.63
2017-07-10T06:05:54.826Z,3.90
2017-07-10T06:08:22.267Z,4.40
2017-07-10T06:10:49.659Z,4.23
2017-07-10T06:13:17.067Z,4.30
2017-07-10T06:15:44.515Z,4.00
2017-07-10T06:18:11.911Z,3.80
2017-07-10T06:20:39.314Z,5.00
2017-07-10T06:23:06.706Z,4.17
2017-07-10T06:25:34.107Z,5.33
2017-07-10T06:28:01.502Z,4.90
2017-07-10T06:30:28.891Z,4.50
2017-07-10T06:32:56.584Z,4.50
2017-07-10T06:35:24.240Z,5.30
2017-07-10T06:37:51.641Z,5.30
2017-07-10T06:40:19.047Z,5.43
2017-07-10T06:42:46.444Z,5.10
2017-07-10T06:45:13.849Z,4.53
2017-07-10T06:47:41.244Z,3.90
2017-07-10T06:50:08.637Z,4.40
2017-07-10T06:52:36.050Z,5.40
2017-07-10T06:55:03.450Z,5.57
2017-07-10T06:57:30.847Z,5.33
2017-07-10T06:59:58.240Z,4.87
2017-07-10T07:02:25.635Z,5.73
2017-07-10T07:04:53.033Z,5.23
2017-07-10T07:07:20.447Z,5.50
2017-07-10T07:09:47.840Z,4.83
2017-07-10T07:12:15.236Z,4.97
2017-07-10T07:14:42.640Z,4.70
2017-07-10T07:17:10.055Z,5.97
2017-07-10T07:19:37.453Z,5.10
2017-07-10T07:22:04.851Z,5.40
2017-07-10T07:24:32.256Z,5.57
2017-07-10T07:26:59.644Z,7.00
2017-07-10T07:29:27.052Z,8.30
2017-07-10T07:31:54.440Z,7.27
2017-07-10T07:34:21.851Z,5.60
2017-07-10T07:36:49.243Z,6.80
2017-07-10T07:39:16.643Z,6.00
2017-07-10T07:41:44.038Z,6.30
2017-07-10T07:44:11.445Z,7.30
2017-07-10T07:46:38.835Z,6.50
2017-07-10T07:49:06.236Z,7.10
2017-07-10T07:51:33.663Z,6.20
2017-07-10T07:54:01.067Z,6.87
2017-07-10T07:56:28.467Z,7.87
2017-07-10T07:58:55.868Z,7.50
2017-07-10T08:01:23.271Z,6.80
2017-07-10T08:03:50.666Z,6.67
2017-07-10T08:06:18.067Z,7.87
2017-07-10T08:08:45.473Z,7.17
2017-07-10T08:11:12.871Z,8.10
2017-07-10T08:13:40.271Z,7.57
2017-07-10T08:16:07.664Z,7.07
2017-07-10T08:18:35.059Z,7.63
2017-07-10T08:21:02.481Z,7.33
2017-07-10T08:23:29.874Z,8.27
2017-07-10T08:25:57.276Z,6.70
2017-07-10T08:28:24.673Z,7.80
2017-07-10T08:30:52.088Z,8.40
2017-07-10T08:33:19.513Z,9.40
2017-07-10T08:35:46.915Z,8.30
2017-07-10T08:38:14.311Z,7.80
2017-07-10T08:40:41.720Z,8.80
2017-07-10T08:43:09.111Z,8.30
2017-07-10T08:45:36.500Z,7.50
2017-07-10T08:48:03.892Z,7.80
2017-07-10T08:50:31.296Z,7.87
2017-07-10T08:52:58.684Z,8.50
2017-07-10T08:55:26.096Z,7.40
2017-07-10T08:57:53.483Z,7.10
2017-07-10T09:00:20.879Z,7.10
2017-07-10T09:02:48.267Z,7.67
2017-07-10T09:05:15.673Z,7.80
2017-07-10T09:07:43.058Z,8.10
2017-07-10T09:10:10.464Z,8.37
2017-07-10T09:12:37.865Z,7.80
2017-07-10T09:15:05.260Z,8.53
2017-07-10T09:17:32.891Z,7.93
2017-07-10T09:20:00.304Z,8.10
2017-07-10T09:22:27.694Z,8.90
2017-07-10T09:24:55.105Z,8.80
2017-07-10T09:27:22.821Z,9.33
2017-07-10T09:29:50.258Z,8.33
2017-07-10T09:32:17.935Z,8.23
2017-07-10T09:34:45.336Z,9.70
2017-07-10T09:37:13.055Z,8.97
2017-07-10T09:39:40.471Z,10.40
2017-07-10T09:42:07.876Z,11.10
2017-07-10T09:44:35.305Z,10.80
2017-07-10T09:47:02.708Z,11.90
2017-07-10T09:49:30.116Z,13.57
2017-07-10T09:51:57.524Z,14.13
2017-07-10T09:54:24.924Z,13.70
2017-07-10T09:56:52.334Z,11.73
2017-07-10T09:59:19.742Z,12.03
2017-07-10T10:01:47.162Z,15.33
2017-07-10T10:04:14.564Z,12.83
2017-07-10T10:06:41.984Z,13.27
2017-07-10T10:09:09.389Z,12.53
2017-07-10T10:11:36.824Z,14.57
2017-07-10T10:14:04.233Z,15.97
2017-07-10T10:16:31.640Z,13.10
2017-07-10T10:18:59.039Z,12.60
2017-07-10T10:21:26.447Z,14.20
2017-07-10T10:23:53.852Z,12.70
2017-07-10T10:26:21.255Z,15.53
2017-07-10T10:28:48.659Z,9.27
2017-07-10T10:31:16.056Z,7.77
2017-07-10T10:33:43.448Z,7.80
2017-07-10T10:36:10.858Z,8.80
2017-07-10T10:38:38.255Z,11.57
2017-07-10T10:41:05.670Z,8.87
2017-07-10T10:43:33.080Z,12.90
2017-07-10T10:46:00.480Z,10.40
2017-07-10T10:48:27.893Z,12.20
2017-07-10T10:50:55.300Z,10.00
2017-07-10T10:53:22.881Z,9.90
2017-07-10T10:55:50.281Z,12.93
2017-07-10T10:58:17.694Z,10.67
2017-07-10T11:00:45.105Z,12.50
2017-07-10T11:03:12.511Z,10.50
2017-07-10T11:05:39.921Z,9.83
2017-07-10T11:08:07.355Z,10.40
2017-07-10T11:10:34.750Z,9.13
2017-07-10T11:13:02.163Z,10.50
2017-07-10T11:15:29.569Z,10.03
2017-07-10T11:17:56.976Z,9.83
2017-07-10T11:20:24.372Z,10.03
2017-07-10T11:22:51.990Z,10.37
2017-07-10T11:25:19.392Z,10.20
2017-07-10T11:27:46.819Z,9.23
2017-07-10T11:30:14.207Z,7.23
2017-07-10T11:32:41.612Z,9.63
2017-07-10T11:35:09.007Z,10.23
2017-07-10T11:37:36.416Z,9.23
2017-07-10T11:40:03.813Z,10.53
2017-07-10T11:42:31.228Z,11.70
2017-07-10T11:44:58.628Z,12.00
2017-07-10T11:47:26.043Z,10.93
2017-07-10T11:49:53.443Z,11.50
2017-07-10T11:52:20.852Z,11.90
2017-07-10T11:54:48.248Z,13.10
2017-07-10T11:57:15.728Z,12.03
2017-07-10T11:59:43.130Z,11.83
2017-07-10T12:02:10.527Z,11.03
2017-07-10T12:04:37.941Z,11.50
2017-07-10T12:07:05.327Z,9.70
2017-07-10T12:09:32.736Z,10.17
2017-07-10T12:12:00.127Z,9.53
2017-07-10T12:14:27.541Z,9.20
2017-07-10T12:16:54.939Z,9.57
2017-07-10T12:19:22.348Z,10.93
2017-07-10T12:21:49.736Z,7.47
2017-07-10T12:24:17.146Z,10.33
2017-07-10T12:26:44.537Z,9.80
2017-07-10T12:29:11.938Z,9.40
2017-07-10T12:31:39.348Z,10.20
2017-07-10T12:34:07.064Z,9.13
2017-07-10T12:36:34.448Z,8.40
2017-07-10T12:39:01.866Z,8.00
2017-07-10T12:41:29.271Z,9.50
2017-07-10T12:43:56.687Z,10.57
2017-07-10T12:46:24.089Z,10.03
2017-07-10T12:48:51.567Z,9.60
2017-07-10T12:51:18.911Z,10.30
2017-07-10T12:53:46.331Z,10.40
2017-07-10T12:56:13.730Z,9.80
2017-07-10T12:58:41.428Z,10.57
2017-07-10T13:01:08.821Z,8.73
2017-07-10T13:03:36.236Z,10.40
2017-07-10T13:06:03.636Z,11.87
2017-07-10T13:08:31.055Z,10.23
2017-07-10T13:10:58.455Z,10.03
2017-07-10T13:13:25.869Z,8.37
2017-07-10T13:15:53.264Z,7.50
2017-07-10T13:18:21.491Z,7.93
2017-07-10T13:20:48.892Z,8.07
2017-07-10T13:23:16.291Z,6.63
2017-07-10T13:25:43.689Z,5.00
2017-07-10T13:28:11.075Z,5.10
2017-07-10T13:30:38.475Z,5.13
2017-07-10T13:33:05.867Z,5.50
2017-07-10T13:35:33.263Z,5.60
2017-07-10T13:38:00.657Z,4.63
2017-07-10T13:43:18.825Z,3.90
2017-07-10T13:45:46.229Z,3.53
2017-07-10T13:48:13.630Z,3.50
2017-07-10T13:53:31.686Z,3.97
2017-07-10T13:55:59.097Z,3.70
2017-07-10T13:58:26.491Z,4.07
2017-07-10T14:00:53.882Z,3.60
2017-07-10T14:03:21.293Z,3.40
2017-07-10T14:05:48.687Z,3.10
2017-07-10T14:08:16.082Z,4.03
2017-07-10T14:10:43.479Z,3.67
2017-07-10T14:13:10.878Z,3.13
2017-07-10T14:15:38.276Z,3.60
2017-07-10T14:18:05.663Z,3.33
2017-07-10T14:20:33.067Z,3.40
2017-07-10T14:23:00.449Z,3.90
2017-07-10T14:25:27.845Z,4.17
2017-07-10T14:27:55.244Z,3.67
2017-07-10T14:30:22.642Z,4.23
2017-07-10T14:32:50.029Z,3.80
2017-07-10T14:35:17.426Z,4.50
2017-07-10T14:37:44.815Z,4.50
2017-07-10T14:40:12.503Z,3.73
2017-07-10T14:42:39.896Z,4.10
2017-07-10T14:45:07.308Z,2.80
2017-07-10T14:47:34.695Z,3.90
2017-07-10T14:50:02.095Z,3.83
2017-07-10T14:52:29.488Z,3.23
2017-07-10T14:54:56.895Z,4.13
2017-07-10T14:57:24.296Z,4.43
2017-07-10T14:59:51.681Z,5.07
2017-07-10T15:02:19.080Z,4.87
2017-07-10T15:04:46.467Z,5.10
2017-07-10T15:07:13.859Z,4.50
2017-07-10T15:09:41.261Z,4.33
2017-07-10T15:12:08.657Z,3.87
2017-07-10T15:14:36.064Z,3.43
2017-07-10T15:17:03.473Z,4.30
2017-07-10T15:19:30.871Z,3.50
2017-07-10T15:21:58.267Z,3.60
2017-07-10T15:24:25.671Z,3.43
2017-07-10T15:26:53.361Z,4.17
2017-07-10T15:29:21.023Z,3.50
2017-07-10T15:31:48.424Z,2.90
2017-07-10T15:34:15.824Z,3.93
2017-07-10T15:36:43.223Z,3.30
2017-07-10T15:39:10.618Z,3.17
2017-07-10T15:41:38.025Z,3.30
2017-07-10T15:44:05.416Z,3.00
2017-07-10T15:46:32.821Z,2.53
2017-07-10T15:49:00.290Z,2.90
2017-07-10T15:51:27.700Z,3.07
2017-07-10T15:53:55.085Z,2.70
2017-07-10T15:56:22.476Z,2.10
2017-07-10T15:58:50.198Z,1.70
2017-07-10T16:01:17.594Z,2.00
2017-07-10T16:03:44.983Z,1.97
2017-07-10T16:06:12.367Z,1.70
2017-07-10T16:08:39.766Z,1.60
2017-07-10T16:11:07.163Z,1.60
2017-07-10T16:13:34.575Z,2.10
2017-07-10T16:16:01.982Z,1.57
2017-07-10T16:18:29.390Z,1.87
2017-07-10T16:20:56.779Z,2.50
2017-07-10T16:23:24.173Z,2.20
2017-07-10T16:25:51.587Z,2.03
2017-07-10T16:28:18.987Z,1.73
2017-07-10T16:30:46.375Z,1.50
2017-07-10T16:33:13.775Z,1.70
2017-07-10T16:35:41.176Z,1.43
2017-07-10T16:38:08.580Z,1.80
2017-07-10T16:40:35.964Z,1.90
2017-07-10T16:43:03.361Z,1.97
2017-07-10T16:45:30.752Z,2.10
2017-07-10T16:47:58.152Z,1.63
2017-07-10T16:50:25.543Z,1.83
2017-07-10T16:52:52.947Z,1.63
2017-07-10T16:55:20.326Z,1.80
2017-07-10T16:57:47.723Z,1.80
2017-07-10T17:00:15.123Z,1.90
2017-07-10T17:02:42.536Z,2.03
2017-07-10T17:05:09.937Z,2.03
2017-07-10T17:07:37.330Z,1.60
2017-07-10T17:10:04.720Z,1.87
2017-07-10T17:12:32.142Z,1.40
2017-07-10T17:14:59.539Z,1.47
2017-07-10T17:17:26.939Z,1.70
2017-07-10T17:19:54.336Z,1.60
2017-07-10T17:22:21.732Z,1.50
2017-07-10T17:24:49.131Z,1.40
2017-07-10T17:27:16.538Z,1.57
2017-07-10T17:29:43.940Z,1.20
2017-07-10T17:32:11.344Z,1.73
2017-07-10T17:34:38.749Z,1.70
2017-07-10T17:37:06.136Z,1.63
2017-07-10T17:39:33.537Z,1.13
2017-07-10T17:42:00.941Z,1.67
2017-07-10T17:44:28.340Z,1.83
2017-07-10T17:46:55.735Z,4.33
2017-07-10T17:49:23.132Z,1.50
2017-07-10T17:51:50.515Z,1.30
2017-07-10T17:54:17.923Z,1.30
2017-07-10T17:56:45.327Z,1.70
2017-07-10T17:59:12.739Z,1.73
2017-07-10T18:01:40.136Z,1.67
2017-07-10T18:04:07.544Z,1.97
2017-07-10T18:06:35.210Z,2.10
2017-07-10T18:09:03.970Z,1.73
2017-07-10T18:11:31.449Z,1.80
2017-07-10T18:13:59.186Z,2.13
2017-07-10T18:16:26.892Z,1.80
2017-07-10T18:18:54.581Z,1.73
2017-07-10T18:21:23.103Z,2.00
2017-07-10T18:23:50.871Z,2.03
2017-07-10T18:26:18.420Z,1.77
2017-07-10T18:28:45.815Z,1.67
2017-07-10T18:31:13.218Z,2.10
2017-07-10T18:33:40.603Z,1.50
2017-07-10T18:36:08.004Z,1.80
2017-07-10T18:38:35.392Z,1.40
2017-07-10T18:41:03.042Z,1.47
2017-07-10T18:43:30.434Z,1.70
2017-07-10T18:45:57.850Z,1.93
2017-07-10T18:48:25.249Z,1.40
2017-07-10T18:50:52.642Z,1.53
2017-07-10T18:53:20.039Z,1.77
2017-07-10T18:55:47.435Z,2.30
2017-07-10T18:58:14.835Z,1.80
2017-07-10T19:00:42.268Z,1.90
2017-07-10T19:03:09.662Z,2.27
2017-07-10T19:05:37.068Z,2.20
2017-07-10T19:08:04.455Z,1.60
2017-07-10T19:10:31.852Z,1.83
2017-07-10T19:12:59.238Z,2.20
2017-07-10T19:15:26.688Z,2.00
2017-07-10T19:17:54.076Z,2.13
2017-07-10T19:20:21.739Z,1.57
2017-07-10T19:22:49.188Z,1.97
2017-07-10T19:25:16.610Z,1.90
2017-07-10T19:27:44.025Z,2.10
2017-07-10T19:30:11.422Z,1.97
2017-07-10T19:32:38.832Z,2.13
2017-07-10T19:35:06.234Z,1.90
2017-07-10T19:37:33.639Z,2.73
2017-07-10T19:40:01.056Z,2.10
2017-07-10T19:42:28.450Z,2.30
2017-07-10T19:44:55.845Z,2.30
2017-07-10T19:47:23.235Z,2.93
2017-07-10T19:49:50.632Z,2.83
2017-07-10T19:52:18.364Z,4.60
2017-07-10T19:54:45.804Z,3.23
2017-07-10T19:57:13.215Z,2.00
2017-07-10T19:59:40.606Z,1.90
2017-07-10T20:02:08.009Z,2.07
2017-07-10T20:04:35.403Z,2.27
2017-07-10T20:07:02.802Z,2.20
2017-07-10T20:09:30.191Z,2.57
2017-07-10T20:11:57.590Z,2.23
2017-07-10T20:14:24.983Z,2.20
2017-07-10T20:16:52.379Z,2.37
2017-07-10T20:19:19.774Z,2.70
2017-07-10T20:21:47.167Z,3.07
2017-07-10T20:24:14.570Z,2.67
2017-07-10T20:26:41.947Z,2.77
2017-07-10T20:29:09.344Z,2.90
2017-07-10T20:31:36.748Z,3.17
2017-07-10T20:34:04.147Z,2.63
2017-07-10T20:36:31.547Z,2.23
2017-07-10T20:38:58.943Z,2.93
2017-07-10T20:41:26.405Z,3.20
2017-07-10T20:43:53.828Z,3.47
2017-07-10T20:46:21.230Z,3.57
2017-07-10T20:48:48.624Z,3.43
2017-07-10T20:51:16.022Z,3.50
2017-07-10T20:53:43.412Z,3.10
2017-07-10T20:56:10.810Z,3.60
2017-07-10T20:58:38.214Z,3.10
2017-07-10T21:01:05.613Z,2.70
2017-07-10T21:03:33.016Z,3.00
2017-07-10T21:06:00.415Z,3.20
2017-07-10T21:08:27.822Z,3.90
2017-07-10T21:10:55.211Z,3.40
2017-07-10T21:13:22.654Z,3.33
2017-07-10T21:15:50.053Z,3.47
2017-07-10T21:18:17.448Z,2.73
2017-07-10T21:20:44.843Z,3.30
2017-07-10T21:23:12.247Z,3.93
2017-07-10T21:25:39.628Z,5.37
2017-07-10T21:28:07.058Z,5.20
2017-07-10T21:30:34.452Z,5.13
2017-07-10T21:33:01.870Z,4.40
2017-07-10T21:35:29.263Z,3.87
2017-07-10T21:37:56.666Z,4.50
2017-07-10T21:40:24.054Z,3.90
2017-07-10T21:42:51.455Z,4.27
2017-07-10T21:45:18.863Z,4.83
2017-07-10T21:47:46.264Z,4.70
2017-07-10T21:50:13.652Z,4.67
2017-07-10T21:52:41.055Z,4.70
2017-07-10T21:55:08.463Z,3.63
2017-07-10T21:57:35.855Z,4.17
2017-07-10T22:00:03.249Z,4.37
2017-07-10T22:02:30.647Z,3.87
2017-07-10T22:04:58.039Z,4.20
2017-07-10T22:07:25.450Z,3.23
2017-07-10T22:09:52.859Z,3.50
2017-07-10T22:12:20.251Z,3.77
2017-07-10T22:14:47.671Z,3.73
2017-07-10T22:17:15.062Z,3.60
2017-07-10T22:19:42.472Z,3.53
2017-07-10T22:22:09.867Z,4.30
2017-07-10T22:24:37.299Z,3.60
2017-07-10T22:27:04.687Z,3.87
2017-07-10T22:29:32.407Z,3.90
2017-07-10T22:31:59.799Z,4.90
2017-07-10T22:34:27.199Z,4.20
2017-07-10T22:36:54.595Z,4.07
2017-07-10T22:39:21.988Z,4.37
2017-07-10T22:41:49.388Z,3.33
2017-07-10T22:44:16.780Z,3.90
2017-07-10T22:46:44.191Z,4.37
2017-07-10T22:49:11.592Z,3.50
2017-07-10T22:51:38.988Z,4.40
2017-07-10T22:54:06.388Z,4.50
2017-07-10T22:56:33.788Z,3.60
2017-07-10T22:59:01.193Z,4.33
2017-07-10T23:01:28.587Z,4.10
2017-07-10T23:03:55.992Z,3.90
2017-07-10T23:06:23.389Z,3.77
2017-07-10T23:08:50.778Z,3.50
2017-07-10T23:11:18.176Z,3.63
2017-07-10T23:13:45.580Z,3.10
2017-07-10T23:16:12.973Z,3.60
2017-07-10T23:18:40.375Z,3.03
2017-07-10T23:21:07.765Z,3.67
2017-07-10T23:23:35.151Z,3.70
2017-07-10T23:26:02.555Z,4.27
2017-07-10T23:28:29.935Z,4.10
2017-07-10T23:30:57.332Z,3.90
2017-07-10T23:33:24.735Z,3.50
2017-07-10T23:35:52.152Z,3.33
2017-07-10T23:38:19.545Z,3.40
2017-07-10T23:40:46.941Z,3.47
2017-07-10T23:43:14.346Z,3.33
2017-07-10T23:45:41.737Z,3.13
2017-07-10T23:48:09.143Z,2.80
2017-07-10T23:50:36.527Z,2.53
2017-07-10T23:53:03.915Z,3.03
2017-07-10T23:55:31.308Z,3.30
2017-07-10T23:57:58.705Z,2.50
